Time;durP1;ratioP1;P1;durP2;ratioP2;P2;SDS_P1;SDS_P2;PMS_P1;PMS_P2;Temp;Humidity;BMP_temperature;BMP_pressure;BME280_temperature;BME280_humidity;BME280_pressure;Samples;Min_cycle;Max_cycle;Signal;HPM_P1;HPM_P2
2021/08/25 00:00:49;;;;;;;8.13;4.97;;;;;;;12.95;100.00;102545.41;5168997;28;20038;-66
2021/08/25 00:03:20;;;;;;;7.85;4.30;;;;;;;12.94;100.00;102546.38;5169903;28;20113;-67
2021/08/25 00:05:53;;;;;;;6.75;4.05;;;;;;;12.98;100.00;102545.22;5167927;28;20057;-67
2021/08/25 00:08:24;;;;;;;6.35;4.55;;;;;;;12.94;100.00;102549.84;5170899;28;20462;-67
2021/08/25 00:10:56;;;;;;;6.90;4.47;;;;;;;12.90;100.00;102540.47;5170502;28;20031;-66
2021/08/25 00:13:27;;;;;;;7.45;5.13;;;;;;;12.77;100.00;102535.22;5171955;28;20041;-65
2021/08/25 00:15:58;;;;;;;5.97;4.20;;;;;;;12.83;100.00;102537.41;5171653;28;20030;-67
2021/08/25 00:18:29;;;;;;;8.32;4.72;;;;;;;12.77;100.00;102537.00;5169948;28;20062;-65
2021/08/25 00:21:01;;;;;;;6.10;4.30;;;;;;;12.73;100.00;102531.09;5170489;28;20023;-67
2021/08/25 00:23:32;;;;;;;6.50;4.55;;;;;;;12.76;100.00;102528.25;5170280;28;20110;-66
2021/08/25 00:26:03;;;;;;;7.50;4.57;;;;;;;12.71;100.00;102516.38;5171590;28;20484;-66
2021/08/25 00:28:36;;;;;;;7.22;4.72;;;;;;;12.66;100.00;102517.53;5169879;28;20400;-66
2021/08/25 00:31:07;;;;;;;6.60;4.53;;;;;;;12.69;100.00;102516.47;5171552;28;20026;-67
2021/08/25 00:33:39;;;;;;;6.03;4.10;;;;;;;12.71;100.00;102516.38;5170074;28;20027;-66
2021/08/25 00:36:10;;;;;;;7.38;4.57;;;;;;;12.58;100.00;102514.56;5168469;28;20026;-66
2021/08/25 00:38:41;;;;;;;7.43;4.80;;;;;;;12.67;100.00;102518.34;5170020;28;20130;-67
2021/08/25 00:41:13;;;;;;;7.03;4.70;;;;;;;12.57;100.00;102514.66;5169135;28;20030;-67
2021/08/25 00:43:45;;;;;;;6.75;4.53;;;;;;;12.58;100.00;102513.72;5170735;28;20070;-67
2021/08/25 00:46:18;;;;;;;7.20;4.93;;;;;;;12.56;100.00;102518.22;5170215;28;20500;-67
2021/08/25 00:48:50;;;;;;;9.43;4.75;;;;;;;12.51;100.00;102509.81;5168698;28;20744;-66
2021/08/25 00:51:23;;;;;;;8.00;4.80;;;;;;;12.52;100.00;102506.22;5172182;28;20031;-66
2021/08/25 00:53:57;;;;;;;5.30;4.18;;;;;;;12.48;100.00;102512.63;5172712;28;20049;-66
2021/08/25 00:56:28;;;;;;;7.13;4.40;;;;;;;12.40;100.00;102511.34;5171882;28;20108;-66
2021/08/25 00:58:59;;;;;;;7.35;4.57;;;;;;;12.43;100.00;102507.69;5170443;28;20502;-66
2021/08/25 01:01:49;;;;;;;7.20;5.10;;;;;;;12.53;100.00;102515.78;5172264;28;20030;-66
2021/08/25 01:04:46;;;;;;;9.07;5.20;;;;;;;12.57;100.00;102512.00;5172309;28;20042;-66
2021/08/25 01:07:25;;;;;;;6.78;4.70;;;;;;;12.31;100.00;102514.59;5172483;28;20022;-66
2021/08/25 01:09:56;;;;;;;6.18;4.78;;;;;;;12.32;100.00;102502.31;5171688;28;20251;-66
2021/08/25 01:12:28;;;;;;;7.80;4.95;;;;;;;12.29;100.00;102507.75;5172544;28;20392;-66
2021/08/25 01:14:59;;;;;;;7.28;4.45;;;;;;;12.27;100.00;102494.69;5172129;28;20026;-68
2021/08/25 01:17:31;;;;;;;8.05;5.57;;;;;;;12.20;100.00;102498.69;5170856;28;20417;-66
2021/08/25 01:20:08;;;;;;;7.43;5.13;;;;;;;12.20;100.00;102497.81;5171758;28;20369;-66
2021/08/25 01:22:43;;;;;;;5.88;4.47;;;;;;;12.13;100.00;102498.25;5171930;28;20054;-66
2021/08/25 01:25:14;;;;;;;8.52;5.00;;;;;;;12.04;100.00;102484.84;5171883;28;20424;-66
2021/08/25 01:27:52;;;;;;;6.43;4.90;;;;;;;12.11;100.00;102496.66;5172086;28;20019;-66
2021/08/25 01:30:26;;;;;;;6.00;4.15;;;;;;;12.10;100.00;102493.19;5172078;28;20019;-66
2021/08/25 01:33:00;;;;;;;7.63;5.70;;;;;;;12.08;100.00;102488.97;5171583;28;20044;-66
2021/08/25 01:35:41;;;;;;;7.57;5.07;;;;;;;12.11;100.00;102494.03;5171249;28;20022;-66
2021/08/25 01:38:23;;;;;;;7.10;5.00;;;;;;;12.08;100.00;102476.66;5172149;28;20483;-66
2021/08/25 01:40:55;;;;;;;10.00;5.55;;;;;;;12.02;100.00;102484.13;5169649;28;20081;-66
2021/08/25 01:43:26;;;;;;;7.13;5.10;;;;;;;11.95;100.00;102481.03;5172082;28;20109;-66
2021/08/25 01:45:57;;;;;;;6.53;4.70;;;;;;;12.08;100.00;102483.72;5172323;28;20026;-66
2021/08/25 01:48:32;;;;;;;9.80;5.10;;;;;;;12.06;100.00;102483.81;5171836;28;20030;-66
2021/08/25 01:51:03;;;;;;;9.50;5.45;;;;;;;11.86;100.00;102479.84;5171021;28;20027;-66
2021/08/25 01:53:35;;;;;;;7.05;5.22;;;;;;;11.92;100.00;102479.44;5171521;28;20529;-67
2021/08/25 01:56:06;;;;;;;8.40;5.15;;;;;;;11.76;100.00;102462.97;5172642;28;20031;-66
2021/08/25 01:58:39;;;;;;;8.35;5.25;;;;;;;11.86;100.00;102474.59;5172432;28;20035;-66
2021/08/25 02:01:11;;;;;;;7.18;5.00;;;;;;;11.90;100.00;102468.22;5174774;28;20023;-66
2021/08/25 02:03:42;;;;;;;7.50;5.03;;;;;;;11.86;100.00;102471.97;5172834;28;20177;-66
2021/08/25 02:06:13;;;;;;;6.63;5.50;;;;;;;11.81;100.00;102471.38;5175244;28;20027;-66
2021/08/25 02:08:45;;;;;;;6.35;5.40;;;;;;;11.78;100.00;102473.34;5173488;28;20022;-66
2021/08/25 02:11:16;;;;;;;6.88;4.57;;;;;;;11.77;100.00;102472.53;5174609;28;20031;-66
2021/08/25 02:13:47;;;;;;;9.52;5.40;;;;;;;11.73;100.00;102465.78;5174827;28;20019;-66
2021/08/25 02:16:19;;;;;;;7.45;5.45;;;;;;;11.75;100.00;102468.31;5174543;28;20027;-66
2021/08/25 02:18:50;;;;;;;10.73;5.25;;;;;;;11.75;100.00;102471.78;5175151;28;20113;-66
2021/08/25 02:21:23;;;;;;;13.55;5.68;;;;;;;11.69;100.00;102473.00;5176591;28;20054;-66
2021/08/25 02:23:54;;;;;;;7.70;5.00;;;;;;;11.64;100.00;102464.59;5173957;28;20031;-66
2021/08/25 02:26:25;;;;;;;7.88;5.22;;;;;;;11.65;100.00;102466.28;5175337;28;20034;-66
2021/08/25 02:28:57;;;;;;;6.47;5.07;;;;;;;11.68;100.00;102460.84;5175287;28;20054;-66
2021/08/25 02:31:28;;;;;;;6.95;5.00;;;;;;;11.62;100.00;102457.75;5174494;28;20484;-66
2021/08/25 02:34:00;;;;;;;7.15;5.53;;;;;;;11.52;100.00;102448.78;5174183;28;20033;-66
2021/08/25 02:36:31;;;;;;;7.40;5.38;;;;;;;11.55;100.00;102457.28;5175042;28;20038;-66
2021/08/25 02:39:03;;;;;;;8.18;5.10;;;;;;;11.54;100.00;102462.63;5175092;28;20118;-66
2021/08/25 02:41:34;;;;;;;9.50;5.57;;;;;;;11.51;100.00;102453.16;5173815;28;20108;-66
2021/08/25 02:44:05;;;;;;;12.18;6.40;;;;;;;11.48;100.00;102448.13;5174652;28;20030;-66
2021/08/25 02:46:37;;;;;;;8.85;6.47;;;;;;;11.48;100.00;102449.88;5174179;28;20511;-66
2021/08/25 02:49:08;;;;;;;7.68;5.82;;;;;;;11.43;100.00;102443.16;5174415;28;20023;-66
2021/08/25 02:51:40;;;;;;;8.57;5.50;;;;;;;11.35;100.00;102439.34;5172582;28;20027;-66
2021/08/25 02:54:11;;;;;;;8.90;5.68;;;;;;;11.38;100.00;102444.41;5173340;28;20555;-66
2021/08/25 02:56:43;;;;;;;8.15;5.68;;;;;;;11.32;100.00;102435.09;5174179;28;20122;-66
2021/08/25 02:59:15;;;;;;;11.50;6.57;;;;;;;11.32;100.00;102426.41;5172390;28;20266;-66
2021/08/25 03:01:46;;;;;;;8.13;5.45;;;;;;;11.27;100.00;102433.72;5174020;28;20085;-66
2021/08/25 03:04:17;;;;;;;10.63;6.18;;;;;;;11.27;100.00;102429.31;5174273;28;20031;-66
2021/08/25 03:06:48;;;;;;;7.32;5.65;;;;;;;11.27;100.00;102418.81;5173467;28;20577;-66
2021/08/25 03:09:20;;;;;;;8.98;6.22;;;;;;;11.27;100.00;102416.19;5174142;28;20428;-66
2021/08/25 03:11:51;;;;;;;8.07;5.72;;;;;;;11.27;100.00;102413.56;5173579;28;20121;-66
2021/08/25 03:14:22;;;;;;;9.10;5.85;;;;;;;11.21;100.00;102413.94;5173004;28;20030;-66
2021/08/25 03:16:53;;;;;;;10.27;6.80;;;;;;;11.20;100.00;102413.09;5173696;28;20054;-66
2021/08/25 03:19:25;;;;;;;8.20;6.00;;;;;;;11.14;100.00;102415.28;5174089;28;20298;-66
2021/08/25 03:21:56;;;;;;;11.25;6.88;;;;;;;11.14;100.00;102413.50;5174044;28;20031;-66
2021/08/25 03:24:28;;;;;;;8.63;6.70;;;;;;;11.12;100.00;102411.91;5171904;28;20041;-66
2021/08/25 03:26:59;;;;;;;10.23;5.70;;;;;;;11.14;100.00;102413.50;5174024;28;20033;-66
2021/08/25 03:29:30;;;;;;;12.55;6.60;;;;;;;11.12;100.00;102419.78;5173886;28;20019;-66
2021/08/25 03:32:02;;;;;;;10.32;5.70;;;;;;;11.06;100.00;102420.16;5172676;28;20018;-66
2021/08/25 03:34:34;;;;;;;9.05;6.43;;;;;;;11.02;100.00;102413.41;5173660;28;20376;-66
2021/08/25 03:37:05;;;;;;;8.07;6.10;;;;;;;11.00;100.00;102415.28;5174427;28;20030;-66
2021/08/25 03:39:37;;;;;;;7.28;5.60;;;;;;;11.01;100.00;102416.97;5172585;28;20054;-66
2021/08/25 03:42:09;;;;;;;9.43;5.93;;;;;;;10.98;100.00;102399.63;5171866;28;20053;-66
2021/08/25 03:44:40;;;;;;;8.35;6.55;;;;;;;10.92;100.00;102398.25;5172796;28;20019;-66
2021/08/25 03:47:12;;;;;;;9.45;6.30;;;;;;;10.90;100.00;102401.91;5173299;28;20042;-66
2021/08/25 03:49:43;;;;;;;7.75;6.30;;;;;;;11.00;100.00;102395.16;5172875;28;20109;-66
2021/08/25 03:52:14;;;;;;;9.38;6.28;;;;;;;10.96;100.00;102397.13;5173283;28;20306;-66
2021/08/25 03:54:46;;;;;;;8.48;6.55;;;;;;;10.90;100.00;102381.75;5173116;28;20262;-66
2021/08/25 03:57:17;;;;;;;8.35;5.68;;;;;;;10.87;100.00;102387.22;5172835;28;20018;-66
2021/08/25 03:59:48;;;;;;;8.98;6.28;;;;;;;10.91;100.00;102382.59;5172969;28;20106;-66
2021/08/25 04:02:19;;;;;;;11.68;6.30;;;;;;;10.79;100.00;102373.69;5170522;28;20030;-66
2021/08/25 04:04:51;;;;;;;7.70;6.25;;;;;;;10.81;100.00;102392.81;5170807;28;20229;-66
2021/08/25 04:07:22;;;;;;;7.60;6.20;;;;;;;10.86;100.00;102388.13;5171926;28;20035;-66
2021/08/25 04:09:53;;;;;;;8.90;6.28;;;;;;;10.86;100.00;102387.28;5173610;28;20046;-66
2021/08/25 04:12:25;;;;;;;9.52;5.68;;;;;;;10.81;100.00;102395.44;5172506;28;20377;-66
2021/08/25 04:14:56;;;;;;;8.05;6.53;;;;;;;10.82;100.00;102391.88;5172672;28;20441;-66
2021/08/25 04:17:27;;;;;;;8.57;6.30;;;;;;;10.72;100.00;102393.41;5171670;28;20038;-66
2021/08/25 04:19:58;;;;;;;10.30;6.68;;;;;;;10.76;100.00;102391.41;5172137;28;20381;-66
2021/08/25 04:22:30;;;;;;;7.95;5.88;;;;;;;10.78;100.00;102389.53;5172656;28;20034;-66
2021/08/25 04:25:01;;;;;;;13.88;6.28;;;;;;;10.71;100.00;102392.53;5171573;28;20497;-66
2021/08/25 04:27:32;;;;;;;8.32;5.72;;;;;;;10.74;100.00;102388.03;5172756;28;20106;-66
2021/08/25 04:30:04;;;;;;;7.97;5.90;;;;;;;10.68;100.00;102384.88;5172389;28;20086;-66
2021/08/25 04:32:36;;;;;;;11.25;5.93;;;;;;;10.69;100.00;102391.78;5172207;28;20027;-66
2021/08/25 04:35:07;;;;;;;9.45;5.55;;;;;;;10.68;100.00;102389.25;5172869;28;20027;-66
2021/08/25 04:37:38;;;;;;;8.27;6.03;;;;;;;10.63;100.00;102389.53;5173210;28;20614;-66
2021/08/25 04:40:10;;;;;;;7.38;5.65;;;;;;;10.62;100.00;102381.78;5171703;28;20113;-66
2021/08/25 04:42:41;;;;;;;11.75;6.18;;;;;;;10.63;100.00;102388.69;5171917;28;20038;-66
2021/08/25 04:45:14;;;;;;;9.30;6.47;;;;;;;10.61;100.00;102390.56;5172505;28;20493;-66
2021/08/25 04:47:45;;;;;;;9.20;6.23;;;;;;;10.63;100.00;102391.31;5173092;28;20033;-66
2021/08/25 04:50:16;;;;;;;9.60;6.38;;;;;;;10.63;100.00;102386.06;5171506;28;20026;-66
2021/08/25 04:52:48;;;;;;;11.13;6.57;;;;;;;10.58;100.00;102393.38;5172033;28;20038;-66
2021/08/25 04:55:19;;;;;;;11.60;6.30;;;;;;;10.56;100.00;102387.38;5172195;28;20484;-66
2021/08/25 04:57:50;;;;;;;8.25;5.88;;;;;;;10.56;100.00;102382.97;5170097;28;20157;-66
2021/08/25 05:00:21;;;;;;;8.00;5.80;;;;;;;10.58;100.00;102378.50;5171197;28;20487;-66
2021/08/25 05:02:53;;;;;;;7.38;5.55;;;;;;;10.58;100.00;102382.91;5171859;28;20552;-66
2021/08/25 05:05:24;;;;;;;7.22;5.25;;;;;;;10.51;100.00;102376.34;5170662;28;20030;-66
2021/08/25 05:07:55;;;;;;;9.93;6.30;;;;;;;10.58;100.00;102378.50;5170344;28;20018;-66
2021/08/25 05:10:27;;;;;;;9.05;6.18;;;;;;;10.57;100.00;102379.44;5172072;28;20484;-66
2021/08/25 05:12:58;;;;;;;7.10;5.80;;;;;;;10.58;100.00;102375.88;5170599;28;20413;-66
2021/08/25 05:15:29;;;;;;;8.93;5.93;;;;;;;10.55;100.00;102367.34;5170072;28;20022;-66
2021/08/25 05:18:01;;;;;;;8.38;6.00;;;;;;;10.65;100.00;102378.97;5171494;28;20034;-66
2021/08/25 05:20:32;;;;;;;8.63;6.20;;;;;;;10.69;100.00;102377.84;5171460;28;20037;-66
2021/08/25 05:23:03;;;;;;;8.23;6.00;;;;;;;10.74;100.00;102383.63;5171739;28;20026;-66
2021/08/25 05:25:36;;;;;;;6.95;5.63;;;;;;;10.80;100.00;102383.28;5170211;28;20031;-66
2021/08/25 05:28:07;;;;;;;8.82;6.10;;;;;;;10.87;100.00;102375.84;5172112;28;20023;-66
2021/08/25 05:30:38;;;;;;;15.05;7.25;;;;;;;10.89;100.00;102376.63;5171379;28;20082;-66
2021/08/25 05:33:10;;;;;;;9.05;6.20;;;;;;;10.94;100.00;102370.13;5174016;28;20026;-68
2021/08/25 05:35:41;;;;;;;9.57;6.50;;;;;;;11.04;100.00;102374.81;5175894;28;20062;-69
2021/08/25 05:38:12;;;;;;;10.18;7.13;;;;;;;11.11;100.00;102374.34;5175966;28;20105;-66
2021/08/25 05:40:44;;;;;;;11.25;7.45;;;;;;;11.22;100.00;102368.44;5175706;28;20619;-69
2021/08/25 05:43:17;;;;;;;14.00;7.35;;;;;;;11.27;100.00;102376.84;5174497;28;20037;-67
2021/08/25 05:45:48;;;;;;;10.30;6.60;;;;;;;11.37;100.00;102374.50;5174578;28;20101;-67
2021/08/25 05:48:19;;;;;;;11.00;7.57;;;;;;;11.41;100.00;102383.84;5173941;28;20477;-67
2021/08/25 05:50:51;;;;;;;12.60;7.20;;;;;;;11.43;100.00;102380.16;5175399;28;20524;-67
2021/08/25 05:53:22;;;;;;;10.15;7.03;;;;;;;11.51;100.00;102358.69;5174503;28;20483;-67
2021/08/25 05:55:54;;;;;;;11.88;7.03;;;;;;;11.58;100.00;102370.47;5174650;28;20030;-67
2021/08/25 05:58:25;;;;;;;11.75;7.45;;;;;;;11.66;100.00;102375.22;5175421;28;20022;-67
2021/08/25 06:00:56;;;;;;;12.60;8.25;;;;;;;11.69;100.00;102378.50;5171909;28;20109;-67
2021/08/25 06:03:27;;;;;;;9.88;7.25;;;;;;;11.68;100.00;102366.31;5171709;28;20058;-67
2021/08/25 06:05:59;;;;;;;12.23;8.15;;;;;;;11.82;100.00;102377.69;5170608;28;20031;-67
2021/08/25 06:08:30;;;;;;;11.35;8.20;;;;;;;11.80;100.00;102367.28;5174129;28;20019;-67
2021/08/25 06:11:01;;;;;;;9.43;7.70;;;;;;;11.87;100.00;102375.66;5174870;28;20038;-67
2021/08/25 06:13:32;;;;;;;11.15;8.15;;;;;;;11.95;100.00;102380.41;5172689;28;20034;-67
2021/08/25 06:16:05;;;;;;;12.23;8.18;;;;;;;11.96;100.00;102379.44;5173144;28;20109;-67
2021/08/25 06:18:36;;;;;;;14.57;8.32;;;;;;;12.02;100.00;102373.81;5173908;28;20035;-67
2021/08/25 06:21:08;;;;;;;12.18;8.27;;;;;;;12.03;100.00;102378.94;5174257;28;20027;-67
2021/08/25 06:23:39;;;;;;;13.07;8.07;;;;;;;12.13;100.00;102376.56;5174154;28;20093;-67
2021/08/25 06:26:10;;;;;;;14.80;8.63;;;;;;;12.17;100.00;102378.03;5174050;28;20022;-67
2021/08/25 06:28:42;;;;;;;11.20;8.15;;;;;;;12.20;100.00;102374.34;5174165;28;20058;-67
2021/08/25 06:31:13;;;;;;;10.95;8.40;;;;;;;12.27;100.00;102380.84;5173397;28;20104;-68
2021/08/25 06:33:45;;;;;;;11.65;7.72;;;;;;;12.35;100.00;102381.19;5174625;28;20034;-67
2021/08/25 06:36:16;;;;;;;12.20;8.88;;;;;;;12.44;100.00;102387.63;5173917;28;20501;-67
2021/08/25 06:38:47;;;;;;;11.77;8.45;;;;;;;12.47;100.00;102387.41;5172442;28;20496;-67
2021/08/25 06:41:19;;;;;;;12.00;8.27;;;;;;;12.60;100.00;102389.09;5173709;28;20469;-66
2021/08/25 06:43:50;;;;;;;15.68;9.13;;;;;;;12.78;100.00;102397.50;5172779;28;20027;-67
2021/08/25 06:46:21;;;;;;;11.43;8.40;;;;;;;12.76;100.00;102396.75;5172340;28;20130;-67
2021/08/25 06:48:53;;;;;;;13.18;9.18;;;;;;;12.89;100.00;102391.50;5173345;28;20019;-67
2021/08/25 06:51:24;;;;;;;12.82;8.52;;;;;;;13.02;100.00;102379.16;5174778;28;20026;-67
2021/08/25 06:53:55;;;;;;;12.25;8.40;;;;;;;13.18;100.00;102388.59;5171971;28;20768;-67
2021/08/25 06:56:27;;;;;;;13.50;8.43;;;;;;;13.23;100.00;102389.13;5173335;28;20041;-67
2021/08/25 06:58:58;;;;;;;10.98;7.95;;;;;;;13.39;100.00;102393.19;5165322;28;20027;-67
2021/08/25 07:01:30;;;;;;;10.23;7.85;;;;;;;13.45;100.00;102391.91;5161604;28;20497;-67
2021/08/25 07:04:01;;;;;;;10.77;8.07;;;;;;;13.59;100.00;102390.91;5165409;28;20043;-68
2021/08/25 07:06:32;;;;;;;13.10;8.32;;;;;;;13.69;100.00;102391.91;5172500;28;20023;-67
2021/08/25 07:09:03;;;;;;;12.18;8.57;;;;;;;13.70;100.00;102390.94;5172458;28;20041;-67
2021/08/25 07:11:35;;;;;;;11.55;8.02;;;;;;;13.80;100.00;102389.34;5170896;28;20045;-67
2021/08/25 07:14:06;;;;;;;11.38;7.57;;;;;;;13.98;100.00;102392.41;5171578;28;20033;-67
2021/08/25 07:16:37;;;;;;;11.55;8.52;;;;;;;13.96;100.00;102394.31;5171723;28;20035;-67
2021/08/25 07:19:09;;;;;;;11.90;8.95;;;;;;;14.15;100.00;102388.50;5170917;28;20110;-67
2021/08/25 07:21:40;;;;;;;14.18;8.70;;;;;;;14.25;100.00;102389.50;5170010;28;20057;-67
2021/08/25 07:24:12;;;;;;;12.35;7.70;;;;;;;14.29;100.00;102388.28;5170820;28;20035;-67
2021/08/25 07:26:43;;;;;;;12.95;8.15;;;;;;;14.39;100.00;102382.31;5172354;28;20480;-67
2021/08/25 07:29:15;;;;;;;10.77;8.38;;;;;;;14.65;100.00;102389.09;5171981;28;20085;-67
2021/08/25 07:31:47;;;;;;;12.55;7.68;;;;;;;14.62;100.00;102384.03;5169214;28;20660;-67
2021/08/25 07:34:19;;;;;;;11.93;7.60;;;;;;;14.78;100.00;102381.91;5166451;28;20472;-67
2021/08/25 07:36:50;;;;;;;11.00;8.23;;;;;;;14.94;100.00;102381.53;5170320;28;20027;-67
2021/08/25 07:39:21;;;;;;;11.18;7.82;;;;;;;14.98;100.00;102380.34;5167897;28;20492;-67
2021/08/25 07:41:54;;;;;;;12.10;8.00;;;;;;;15.10;100.00;102375.88;5164631;28;20048;-66
2021/08/25 07:44:25;;;;;;;12.70;8.57;;;;;;;15.30;100.00;102384.84;5171581;28;20095;-66
2021/08/25 07:46:56;;;;;;;12.52;8.35;;;;;;;15.32;100.00;102378.47;5171651;28;20148;-66
2021/08/25 07:49:29;;;;;;;11.18;8.40;;;;;;;15.40;100.00;102379.66;5171099;28;20043;-67
2021/08/25 07:52:02;;;;;;;;;;;;;;;15.64;100.00;102377.66;5173168;28;20053;-66
2021/08/25 07:54:33;;;;;;;10.45;8.05;;;;;;;15.59;100.00;102374.56;5170889;28;19910;-66
2021/08/25 07:57:05;;;;;;;12.60;8.48;;;;;;;15.64;100.00;102367.09;5171772;28;20516;-67
2021/08/25 07:59:36;;;;;;;12.15;8.15;;;;;;;15.74;100.00;102369.84;5170419;28;20035;-67
2021/08/25 08:02:07;;;;;;;9.48;7.43;;;;;;;16.01;100.00;102372.84;5171454;28;20031;-66
2021/08/25 08:04:38;;;;;;;12.07;7.78;;;;;;;16.12;100.00;102366.66;5168077;28;20027;-66
2021/08/25 08:07:10;;;;;;;10.98;7.70;;;;;;;16.26;100.00;102360.22;5170229;28;20046;-66
2021/08/25 08:09:42;;;;;;;28.30;9.82;;;;;;;16.44;100.00;102361.28;5172151;28;20023;-67
2021/08/25 08:12:14;;;;;;;15.77;7.15;;;;;;;16.65;100.00;102363.88;5170552;28;20472;-67
2021/08/25 08:14:45;;;;;;;12.85;6.82;;;;;;;16.76;100.00;102366.47;5171033;28;20042;-67
2021/08/25 08:17:19;;;;;;;10.18;6.53;;;;;;;16.91;100.00;102359.00;5171998;28;20030;-67
2021/08/25 08:19:51;;;;;;;9.25;5.88;;;;;;;17.03;100.00;102351.78;5169834;28;20035;-67
2021/08/25 08:22:22;;;;;;;9.00;6.45;;;;;;;17.11;100.00;102353.75;5169089;28;20022;-66
2021/08/25 08:24:54;;;;;;;8.60;6.30;;;;;;;17.15;100.00;102344.56;5171378;28;20030;-66
2021/08/25 08:27:25;;;;;;;10.30;6.80;;;;;;;17.29;100.00;102344.19;5170753;28;20034;-67
2021/08/25 08:29:56;;;;;;;8.90;6.30;;;;;;;17.41;100.00;102342.22;5166504;28;20077;-67
2021/08/25 08:32:28;;;;;;;11.65;6.88;;;;;;;17.50;100.00;102347.56;5171138;28;20026;-69
2021/08/25 08:34:59;;;;;;;12.70;7.00;;;;;;;17.58;100.00;102340.69;5171738;28;20030;-67
2021/08/25 08:37:30;;;;;;;9.23;6.05;;;;;;;17.78;100.00;102345.06;5171097;28;20033;-67
2021/08/25 08:40:04;;;;;;;9.95;6.63;;;;;;;17.87;100.00;102335.41;5170110;28;20071;-67
2021/08/25 08:42:35;;;;;;;8.23;6.43;;;;;;;18.02;100.00;102344.59;5171159;28;20156;-68
2021/08/25 08:45:10;;;;;;;9.75;5.63;;;;;;;18.19;100.00;102338.56;5171928;28;20062;-67
2021/08/25 08:47:42;;;;;;;9.75;5.82;;;;;;;18.30;99.24;102348.19;5167476;28;20037;-67
2021/08/25 08:50:13;;;;;;;10.37;5.73;;;;;;;18.43;100.00;102347.84;5169361;28;20404;-67
2021/08/25 08:52:45;;;;;;;8.52;5.82;;;;;;;18.57;99.69;102344.75;5171257;28;20304;-67
2021/08/25 08:55:16;;;;;;;8.52;6.35;;;;;;;18.61;99.93;102343.47;5167513;28;20023;-68
2021/08/25 08:57:47;;;;;;;11.45;6.22;;;;;;;18.58;100.00;102321.69;5170739;28;20204;-67
2021/08/25 09:00:19;;;;;;;10.52;6.45;;;;;;;18.93;100.00;102347.53;5170263;28;20062;-67
2021/08/25 09:02:50;;;;;;;11.73;7.00;;;;;;;18.98;100.00;102355.91;5171085;28;20065;-67
2021/08/25 09:05:34;;;;;;;14.60;7.15;;;;;;;19.06;99.46;102348.03;5170172;28;20466;-67
2021/08/25 09:08:07;;;;;;;9.45;6.40;;;;;;;19.13;99.71;102349.09;5167665;28;20038;-67
2021/08/25 09:10:39;;;;;;;11.00;6.13;;;;;;;19.31;95.55;102349.09;5170176;28;20125;-67
2021/08/25 09:13:12;;;;;;;11.20;5.80;;;;;;;19.49;95.17;102345.63;5170730;28;20089;-68
2021/08/25 09:15:43;;;;;;;9.55;6.10;;;;;;;19.61;95.47;102337.25;5170673;28;20030;-67
2021/08/25 09:18:15;;;;;;;11.80;6.00;;;;;;;19.68;96.35;102334.84;5170063;28;20388;-67
2021/08/25 09:20:48;;;;;;;8.63;5.57;;;;;;;19.79;89.86;102339.09;5165888;28;20038;-67
2021/08/25 09:23:23;;;;;;;13.45;5.65;;;;;;;19.92;87.16;102342.16;5170617;28;20019;-67
2021/08/25 09:26:00;;;;;;;10.75;5.28;;;;;;;20.01;88.09;102333.28;5168893;28;20038;-67
2021/08/25 09:28:35;;;;;;;10.85;5.57;;;;;;;20.07;87.50;102332.63;5167781;28;20022;-68
2021/08/25 09:31:08;;;;;;;7.80;5.03;;;;;;;20.14;85.45;102328.34;5169144;28;20492;-68
2021/08/25 09:33:47;;;;;;;9.80;5.40;;;;;;;20.21;86.94;102330.41;5170105;28;20023;-68
2021/08/25 09:36:19;;;;;;;11.18;5.50;;;;;;;20.35;86.43;102328.00;5169799;28;20026;-67
2021/08/25 09:38:56;;;;;;;7.00;4.32;;;;;;;20.35;82.20;102328.00;5170096;28;20088;-68
2021/08/25 09:41:27;;;;;;;6.70;4.50;;;;;;;20.45;87.56;102330.53;5168783;28;20041;-67
2021/08/25 09:44:13;;;;;;;8.70;4.53;;;;;;;20.78;87.51;102336.88;5169844;28;20477;-67
2021/08/25 09:46:51;;;;;;;7.75;5.25;;;;;;;20.79;85.96;102329.69;5166490;28;20251;-67
2021/08/25 09:49:22;;;;;;;7.50;5.60;;;;;;;20.83;86.72;102321.22;5168232;28;20757;-67
2021/08/25 09:51:54;;;;;;;9.07;5.87;;;;;;;20.97;86.21;102311.78;5170050;28;20019;-67
2021/08/25 09:54:26;;;;;;;8.13;5.90;;;;;;;21.08;84.68;102310.66;5169504;28;20396;-68
2021/08/25 09:56:57;;;;;;;7.83;5.00;;;;;;;21.16;84.87;102307.16;5167455;28;20033;-68
2021/08/25 09:59:29;;;;;;;8.73;5.20;;;;;;;21.21;81.97;102307.50;5169414;28;20049;-67
2021/08/25 10:02:02;;;;;;;8.13;5.03;;;;;;;21.33;82.10;102303.56;5169240;28;20456;-67
2021/08/25 10:04:34;;;;;;;9.45;6.00;;;;;;;21.24;79.92;102296.50;5169555;28;20484;-67
2021/08/25 10:07:05;;;;;;;8.43;5.47;;;;;;;21.42;81.75;102297.22;5167297;28;20038;-67
2021/08/25 10:09:37;;;;;;;6.57;4.90;;;;;;;21.47;80.19;102296.72;5167453;28;20018;-67
2021/08/25 10:12:08;;;;;;;6.50;4.80;;;;;;;21.63;79.22;102288.72;5170853;28;20089;-67
2021/08/25 10:14:39;;;;;;;7.47;4.90;;;;;;;21.62;79.10;102285.22;5170199;28;20038;-68
2021/08/25 10:17:38;;;;;;;7.47;4.73;;;;;;;21.86;79.88;102283.53;5168105;28;20085;-68
2021/08/25 10:20:25;;;;;;;7.13;4.40;;;;;;;21.77;78.34;102273.84;5168075;28;20069;-67
2021/08/25 10:22:56;;;;;;;8.63;4.50;;;;;;;21.79;76.46;102280.69;5170804;28;20027;-68
2021/08/25 10:25:28;;;;;;;6.93;5.20;;;;;;;21.77;78.89;102274.69;5173096;28;20041;-68
2021/08/25 10:28:03;;;;;;;7.90;5.37;;;;;;;21.69;77.38;102281.88;5170698;28;20056;-68
2021/08/25 10:30:46;;;;;;;6.65;4.88;;;;;;;21.98;75.74;102276.84;5171735;28;20023;-68
2021/08/25 10:33:17;;;;;;;6.93;4.65;;;;;;;21.99;78.03;102278.50;5172953;28;20069;-68
2021/08/25 10:35:49;;;;;;;8.50;4.80;;;;;;;22.08;75.28;102277.44;5172033;28;20117;-68
2021/08/25 10:38:31;;;;;;;7.27;5.10;;;;;;;22.28;76.90;102272.59;5171876;28;20029;-68
2021/08/25 10:41:19;;;;;;;7.75;4.85;;;;;;;22.28;78.01;102275.28;5171893;28;20517;-68
2021/08/25 10:43:54;;;;;;;6.93;4.90;;;;;;;22.11;74.86;102277.13;5169392;28;20074;-68
2021/08/25 10:46:46;;;;;;;7.95;5.20;;;;;;;22.29;76.03;102276.94;5170534;28;20030;-68
2021/08/25 10:49:33;;;;;;;8.98;5.00;;;;;;;22.27;77.31;102273.59;5171940;28;20049;-68
2021/08/25 10:52:13;;;;;;;7.50;4.90;;;;;;;22.30;75.98;102267.06;5171421;28;20037;-68
2021/08/25 10:54:49;;;;;;;8.98;4.97;;;;;;;22.39;76.01;102260.72;5169229;28;20447;-68
2021/08/25 10:57:23;;;;;;;7.60;5.20;;;;;;;22.30;74.36;102265.22;5171051;28;20030;-68
2021/08/25 11:00:08;;;;;;;8.18;5.40;;;;;;;22.68;76.53;102259.22;5171020;28;20063;-68
2021/08/25 11:02:40;;;;;;;11.45;5.75;;;;;;;22.55;75.01;102249.13;5173070;28;20041;-68
2021/08/25 11:05:11;;;;;;;7.23;4.57;;;;;;;22.50;75.05;102254.13;5170336;28;20027;-68
2021/08/25 11:07:42;;;;;;;6.90;4.80;;;;;;;22.42;69.62;102251.50;5170314;28;20231;-68
2021/08/25 11:10:22;;;;;;;6.63;4.70;;;;;;;22.79;68.48;102256.16;5170754;28;20780;-68
2021/08/25 11:12:53;;;;;;;6.22;4.35;;;;;;;22.73;66.00;102243.50;5170098;28;20042;-68
2021/08/25 11:15:31;;;;;;;7.67;5.30;;;;;;;22.70;67.81;102235.84;5171389;28;20497;-68
2021/08/25 11:18:03;;;;;;;6.95;4.57;;;;;;;22.85;67.78;102231.41;5171455;28;20029;-68
2021/08/25 11:20:34;;;;;;;7.00;4.70;;;;;;;22.97;68.40;102234.53;5170626;28;20019;-68
2021/08/25 11:23:05;;;;;;;7.57;4.77;;;;;;;22.80;68.60;102228.41;5171564;28;20030;-67
2021/08/25 11:25:51;;;;;;;6.60;4.77;;;;;;;22.82;67.03;102213.06;5169055;28;20066;-68
2021/08/25 11:28:23;;;;;;;7.10;5.05;;;;;;;22.89;64.30;102219.34;5171052;28;20110;-68
2021/08/25 11:30:54;;;;;;;8.20;5.20;;;;;;;22.70;65.54;102212.63;5169358;28;20064;-68
2021/08/25 11:33:25;;;;;;;7.80;4.93;;;;;;;22.90;65.96;102193.47;5170522;28;20109;-68
2021/08/25 11:36:02;;;;;;;7.57;4.57;;;;;;;23.15;65.29;102199.47;5171834;28;20499;-68
2021/08/25 11:38:35;;;;;;;6.68;4.55;;;;;;;23.26;62.67;102186.50;5170237;28;20109;-68
2021/08/25 11:41:06;;;;;;;;;;;;;;;23.75;67.49;102187.84;5168497;28;20063;-68